Time;durP1;ratioP1;P1;durP2;ratioP2;P2;SDS_P1;SDS_P2;PMS_P1;PMS_P2;Temp;Humidity;BMP_temperature;BMP_pressure;BME280_temperature;BME280_humidity;BME280_pressure;Samples;Min_cycle;Max_cycle;Signal;HPM_P1;HPM_P2
2022/01/07 00:01:24;;;;;;;11.00;6.25;;;1.90;99.90;;;;;;5013035;28;20583;-76
2022/01/07 00:03:51;;;;;;;11.98;5.75;;;1.90;99.90;;;;;;5013526;28;20214;-75
2022/01/07 00:06:17;;;;;;;11.25;6.25;;;1.90;99.90;;;;;;5010603;28;20187;-77
2022/01/07 00:08:43;;;;;;;7.90;4.28;;;1.90;99.90;;;;;;5010599;28;20574;-75
2022/01/07 00:11:10;;;;;;;8.77;4.77;;;1.90;99.90;;;;;;5009845;28;20197;-75
2022/01/07 00:13:36;;;;;;;8.25;5.60;;;1.80;99.90;;;;;;5013742;28;20531;-74
2022/01/07 00:16:01;;;;;;;12.30;4.63;;;1.80;99.90;;;;;;5011453;28;20182;-74
2022/01/07 00:18:27;;;;;;;19.77;5.77;;;1.80;99.90;;;;;;5012452;28;20484;-75
2022/01/07 00:20:53;;;;;;;13.97;5.43;;;1.80;99.90;;;;;;5012357;28;20706;-75
2022/01/07 00:23:19;;;;;;;12.65;4.85;;;1.80;99.90;;;;;;5008634;28;20435;-74
2022/01/07 00:25:45;;;;;;;16.48;7.53;;;1.80;99.90;;;;;;5012689;28;20236;-74
2022/01/07 00:28:11;;;;;;;11.90;5.40;;;1.80;99.90;;;;;;5011401;28;20202;-74
2022/01/07 00:30:37;;;;;;;6.87;4.97;;;1.80;99.90;;;;;;5011204;28;20480;-75
2022/01/07 00:33:04;;;;;;;11.57;5.33;;;1.90;99.90;;;;;;5000638;28;20654;-75
2022/01/07 00:35:30;;;;;;;10.55;4.70;;;1.80;99.90;;;;;;5015414;28;20505;-76
2022/01/07 00:37:55;;;;;;;12.27;5.23;;;1.90;99.90;;;;;;5009204;28;20578;-76
2022/01/07 00:40:23;;;;;;;6.80;4.77;;;1.90;99.90;;;;;;5012508;28;20258;-77
2022/01/07 00:42:50;;;;;;;11.10;4.40;;;1.90;99.90;;;;;;5011649;28;20181;-75
2022/01/07 00:45:20;;;;;;;11.15;5.80;;;1.90;99.90;;;;;;5011481;28;20179;-76
2022/01/07 00:47:46;;;;;;;9.00;4.68;;;1.90;99.90;;;;;;5010293;28;20184;-75
2022/01/07 00:50:13;;;;;;;13.23;5.10;;;1.90;99.90;;;;;;5006433;28;20269;-75
2022/01/07 00:52:39;;;;;;;7.50;4.30;;;1.90;99.90;;;;;;5026184;28;20190;-75
2022/01/07 00:55:06;;;;;;;10.67;5.10;;;1.90;99.90;;;;;;5010561;28;20210;-74
2022/01/07 00:57:32;;;;;;;10.95;4.97;;;2.00;99.90;;;;;;5012072;28;20466;-75
2022/01/07 00:59:58;;;;;;;7.38;5.28;;;2.00;99.90;;;;;;5008712;28;20202;-75
2022/01/07 01:02:23;;;;;;;14.63;4.70;;;2.10;99.90;;;;;;5021805;28;20556;-76
2022/01/07 01:04:49;;;;;;;14.47;4.87;;;2.10;99.90;;;;;;5007492;28;20193;-75
2022/01/07 01:07:15;;;;;;;11.80;5.00;;;2.10;99.90;;;;;;5010133;28;20182;-76
2022/01/07 01:09:42;;;;;;;10.10;5.65;;;2.10;99.90;;;;;;5013058;28;20524;-76
2022/01/07 01:12:10;;;;;;;9.65;4.70;;;2.10;99.90;;;;;;5013040;28;20178;-77
2022/01/07 01:14:35;;;;;;;7.75;4.75;;;2.10;99.90;;;;;;5013408;28;20210;-77
2022/01/07 01:17:01;;;;;;;11.50;5.70;;;2.20;99.90;;;;;;5013684;28;20676;-76
2022/01/07 01:19:27;;;;;;;13.63;5.88;;;2.20;99.90;;;;;;5013021;28;20488;-77
2022/01/07 01:21:54;;;;;;;8.82;5.00;;;2.20;99.90;;;;;;5013612;28;20182;-77
2022/01/07 01:24:20;;;;;;;8.73;5.18;;;2.30;99.90;;;;;;5013441;28;20192;-77
2022/01/07 01:26:46;;;;;;;8.00;5.40;;;2.30;99.90;;;;;;5013387;28;20261;-77
2022/01/07 01:29:11;;;;;;;6.55;4.68;;;2.30;99.90;;;;;;5013114;28;20303;-77
2022/01/07 01:31:37;;;;;;;7.83;4.73;;;2.30;99.90;;;;;;5013354;28;20269;-77
2022/01/07 01:34:03;;;;;;;8.00;4.53;;;2.30;99.90;;;;;;5013292;28;20215;-77
2022/01/07 01:36:30;;;;;;;14.10;6.28;;;2.30;99.90;;;;;;5013309;28;20175;-78
2022/01/07 01:38:56;;;;;;;11.95;7.00;;;2.40;99.90;;;;;;5011391;28;20206;-77
2022/01/07 01:41:22;;;;;;;8.37;4.63;;;2.40;99.90;;;;;;5012244;28;20209;-77
2022/01/07 01:43:49;;;;;;;14.65;5.68;;;2.40;99.90;;;;;;4992287;28;20187;-78
2022/01/07 01:46:19;;;;;;;8.05;4.53;;;2.30;99.90;;;;;;4993551;28;20183;-77
2022/01/07 01:48:46;;;;;;;9.30;5.13;;;2.40;99.90;;;;;;4996857;28;20203;-76
2022/01/07 01:51:13;;;;;;;8.38;5.00;;;2.50;99.90;;;;;;5000057;28;20195;-78
2022/01/07 01:53:39;;;;;;;10.23;5.30;;;2.50;99.90;;;;;;4993358;28;20200;-78
2022/01/07 01:56:05;;;;;;;6.50;5.10;;;2.50;99.90;;;;;;4993227;28;20176;-78
2022/01/07 01:58:31;;;;;;;10.17;5.90;;;2.50;99.90;;;;;;4993367;28;20191;-78
2022/01/07 02:00:57;;;;;;;8.57;4.45;;;2.50;99.90;;;;;;4993801;28;20615;-78
2022/01/07 02:03:22;;;;;;;6.70;4.53;;;2.60;99.90;;;;;;4993546;28;20266;-78
2022/01/07 02:05:48;;;;;;;10.70;5.17;;;2.60;99.90;;;;;;4992264;28;20182;-78
2022/01/07 02:08:14;;;;;;;12.63;3.97;;;2.60;99.90;;;;;;4995659;28;20200;-77
2022/01/07 02:10:41;;;;;;;7.20;4.27;;;2.60;99.90;;;;;;4997073;28;20623;-77
2022/01/07 02:13:07;;;;;;;12.10;4.20;;;2.60;99.90;;;;;;4997357;28;20772;-77
2022/01/07 02:15:33;;;;;;;6.30;4.10;;;2.60;99.90;;;;;;4997218;28;20211;-77
2022/01/07 02:17:58;;;;;;;9.43;5.30;;;2.60;99.90;;;;;;4996712;28;20172;-78
2022/01/07 02:20:28;;;;;;;6.93;4.73;;;2.60;99.90;;;;;;4997261;28;20185;-77
2022/01/07 02:22:55;;;;;;;7.95;4.90;;;2.60;99.90;;;;;;4998679;28;20588;-77
2022/01/07 02:25:20;;;;;;;6.60;4.57;;;2.60;99.90;;;;;;4996848;28;20176;-77
2022/01/07 02:27:47;;;;;;;7.90;4.57;;;2.60;99.90;;;;;;4996388;28;20560;-77
2022/01/07 02:30:19;;;;;;;8.65;4.13;;;2.60;99.90;;;;;;4996202;28;20189;-78
2022/01/07 02:32:46;;;;;;;4.97;4.35;;;2.60;99.90;;;;;;4996762;28;20172;-78
2022/01/07 02:35:13;;;;;;;8.93;5.25;;;2.60;99.90;;;;;;4996689;28;20216;-78
2022/01/07 02:37:39;;;;;;;10.02;5.78;;;2.60;99.90;;;;;;4996200;28;20188;-78
2022/01/07 02:40:06;;;;;;;7.40;4.87;;;2.60;99.90;;;;;;4996560;28;20183;-78
2022/01/07 02:42:32;;;;;;;10.95;5.50;;;2.60;99.90;;;;;;4996581;28;20502;-75
2022/01/07 02:44:58;;;;;;;9.27;4.77;;;2.60;99.90;;;;;;4996681;28;20269;-77
2022/01/07 02:47:27;;;;;;;10.27;4.90;;;2.70;99.90;;;;;;4996441;28;20425;-77
2022/01/07 02:49:53;;;;;;;7.30;4.30;;;2.60;99.90;;;;;;4995061;28;20207;-77
2022/01/07 02:52:18;;;;;;;7.30;4.33;;;2.70;99.90;;;;;;4995247;28;20192;-77
2022/01/07 02:54:44;;;;;;;8.20;4.17;;;2.60;99.90;;;;;;4996332;28;20223;-77
2022/01/07 02:57:09;;;;;;;5.80;3.63;;;2.60;99.90;;;;;;4996118;28;20194;-77
2022/01/07 02:59:35;;;;;;;8.93;4.90;;;2.60;99.90;;;;;;5011344;28;20217;-77
2022/01/07 03:02:00;;;;;;;5.53;3.67;;;2.60;99.90;;;;;;5015796;28;20190;-77
2022/01/07 03:04:28;;;;;;;9.40;4.00;;;2.60;99.90;;;;;;5016346;28;20669;-77
2022/01/07 03:06:54;;;;;;;9.00;4.13;;;2.50;99.90;;;;;;5016242;28;20186;-77
2022/01/07 03:09:19;;;;;;;6.32;3.92;;;2.50;99.90;;;;;;5015307;28;20207;-77
2022/01/07 03:11:45;;;;;;;9.10;4.60;;;2.50;99.90;;;;;;5031009;28;20201;-77
2022/01/07 03:14:10;;;;;;;8.13;4.30;;;2.50;99.90;;;;;;5015676;28;20208;-77
2022/01/07 03:16:38;;;;;;;8.13;3.80;;;2.50;99.90;;;;;;5015653;28;20651;-77
2022/01/07 03:19:04;;;;;;;9.15;4.60;;;2.50;99.90;;;;;;5014778;28;20203;-77
2022/01/07 03:21:30;;;;;;;5.47;3.73;;;2.50;99.90;;;;;;5014199;28;20180;-77
2022/01/07 03:23:55;;;;;;;6.20;3.90;;;2.50;99.90;;;;;;5015524;28;20629;-77
2022/01/07 03:26:21;;;;;;;6.03;3.60;;;2.50;99.90;;;;;;5015276;28;20513;-77
2022/01/07 03:28:47;;;;;;;9.23;4.23;;;2.60;99.90;;;;;;5015050;28;20280;-77
2022/01/07 03:31:13;;;;;;;6.78;3.88;;;2.50;99.90;;;;;;5015313;28;20182;-78
2022/01/07 03:33:38;;;;;;;6.17;3.67;;;2.50;99.90;;;;;;5002775;28;20221;-77
2022/01/07 03:36:04;;;;;;;9.80;4.53;;;2.50;99.90;;;;;;4995615;28;20411;-77
2022/01/07 03:38:30;;;;;;;11.30;4.90;;;2.50;99.90;;;;;;4994788;28;20209;-79
2022/01/07 03:40:56;;;;;;;7.60;4.10;;;2.50;99.90;;;;;;4995499;28;20419;-77
2022/01/07 03:43:22;;;;;;;9.60;4.93;;;2.50;99.90;;;;;;4995329;28;20645;-77
2022/01/07 03:45:48;;;;;;;4.28;3.00;;;2.50;99.90;;;;;;4995248;28;20260;-77
2022/01/07 03:48:13;;;;;;;6.80;3.07;;;2.50;99.90;;;;;;4995039;28;20209;-78
2022/01/07 03:50:39;;;;;;;9.93;4.30;;;2.60;99.90;;;;;;4995111;28;20203;-77
2022/01/07 03:53:05;;;;;;;7.80;3.70;;;2.60;99.90;;;;;;4995262;28;20449;-77
2022/01/07 03:55:32;;;;;;;6.32;4.30;;;2.70;99.90;;;;;;4995268;28;20205;-77
2022/01/07 03:57:59;;;;;;;7.20;3.70;;;2.70;99.90;;;;;;4994756;28;20176;-77
2022/01/07 04:00:32;;;;;;;6.72;3.10;;;2.70;99.90;;;;;;4995306;28;20608;-77
2022/01/07 04:02:57;;;;;;;6.72;3.15;;;2.70;99.90;;;;;;4994627;28;20191;-77
2022/01/07 04:05:23;;;;;;;8.07;3.70;;;2.80;99.90;;;;;;4995007;28;20187;-77
2022/01/07 04:07:50;;;;;;;5.50;2.90;;;2.80;99.90;;;;;;5012773;28;20190;-78
2022/01/07 04:10:16;;;;;;;5.97;3.33;;;2.80;99.90;;;;;;5014271;28;20190;-77
2022/01/07 04:12:41;;;;;;;6.23;3.17;;;2.90;99.90;;;;;;5014474;28;20190;-78
2022/01/07 04:15:08;;;;;;;4.00;3.13;;;2.90;99.90;;;;;;5014342;28;20470;-77
2022/01/07 04:17:39;;;;;;;7.10;3.17;;;2.90;99.90;;;;;;5014406;28;20168;-77
2022/01/07 04:20:06;;;;;;;6.55;3.30;;;2.90;99.90;;;;;;5014866;28;20520;-77
2022/01/07 04:22:33;;;;;;;10.48;2.90;;;2.90;99.90;;;;;;5014465;28;20199;-77
2022/01/07 04:25:00;;;;;;;4.25;2.65;;;2.90;99.90;;;;;;5029812;28;20194;-77
2022/01/07 04:27:25;;;;;;;8.88;3.00;;;3.00;99.90;;;;;;5014057;28;20548;-77
2022/01/07 04:29:51;;;;;;;9.53;2.53;;;3.00;99.90;;;;;;5006673;28;20214;-76
2022/01/07 04:32:18;;;;;;;7.80;3.20;;;3.00;99.90;;;;;;4994505;28;20188;-77
2022/01/07 04:34:44;;;;;;;8.18;3.20;;;3.00;99.90;;;;;;4994444;28;20245;-77
2022/01/07 04:37:09;;;;;;;8.90;2.93;;;3.00;99.90;;;;;;5008293;28;20229;-76
2022/01/07 04:39:35;;;;;;;6.73;2.90;;;3.00;99.90;;;;;;5013570;28;20918;-76
2022/01/07 04:42:01;;;;;;;3.33;2.70;;;3.00;99.90;;;;;;5012753;28;20550;-76
2022/01/07 04:44:26;;;;;;;4.50;2.87;;;3.10;99.90;;;;;;5013942;28;20708;-77
2022/01/07 04:46:52;;;;;;;5.60;2.20;;;3.10;99.90;;;;;;5013747;28;20178;-77
2022/01/07 04:49:18;;;;;;;2.90;2.50;;;3.10;99.90;;;;;;5013331;28;20440;-76
2022/01/07 04:51:43;;;;;;;4.93;2.33;;;3.10;99.90;;;;;;5013894;28;20185;-76
2022/01/07 04:54:09;;;;;;;9.70;2.97;;;3.20;99.90;;;;;;5013821;28;20200;-77
2022/01/07 04:56:34;;;;;;;5.73;2.63;;;3.20;99.90;;;;;;5013847;28;20224;-77
2022/01/07 04:59:00;;;;;;;5.70;2.73;;;3.20;99.90;;;;;;5013265;28;20216;-77
2022/01/07 05:01:26;;;;;;;11.10;2.70;;;3.30;99.90;;;;;;5010067;28;20215;-77
2022/01/07 05:03:51;;;;;;;6.80;2.20;;;3.30;99.90;;;;;;5013647;28;20182;-76
2022/01/07 05:09:01;;;;;;;3.53;1.95;;;3.40;99.90;;;;;;4993859;28;20218;-76
2022/01/07 05:11:26;;;;;;;4.50;2.00;;;3.40;99.90;;;;;;4994096;28;20184;-76
2022/01/07 05:13:52;;;;;;;9.33;2.60;;;3.50;99.90;;;;;;4993996;28;20207;-77
2022/01/07 05:16:17;;;;;;;5.37;2.40;;;3.50;99.90;;;;;;4993998;28;20184;-76
2022/01/07 05:18:43;;;;;;;5.10;2.33;;;3.50;99.90;;;;;;4993151;28;20195;-76
2022/01/07 05:21:09;;;;;;;5.37;2.50;;;3.50;99.90;;;;;;4993804;28;20180;-77
2022/01/07 05:23:34;;;;;;;6.33;2.60;;;3.50;99.90;;;;;;4993719;28;20203;-77
2022/01/07 05:26:00;;;;;;;4.53;2.20;;;3.40;99.90;;;;;;5008923;28;20656;-77
2022/01/07 05:28:26;;;;;;;6.30;2.33;;;3.40;99.90;;;;;;4993409;28;20208;-77
2022/01/07 05:30:51;;;;;;;5.30;3.43;;;3.40;99.90;;;;;;4993737;28;20184;-77
2022/01/07 05:33:17;;;;;;;5.60;2.20;;;3.40;99.90;;;;;;4994006;28;20203;-77
2022/01/07 05:35:42;;;;;;;4.43;1.87;;;3.40;99.90;;;;;;4993837;28;20668;-77
2022/01/07 05:38:08;;;;;;;4.53;2.33;;;3.40;99.90;;;;;;5002818;28;20246;-77
2022/01/07 05:40:33;;;;;;;5.40;2.30;;;3.50;99.90;;;;;;5013074;28;20175;-77
2022/01/07 05:42:59;;;;;;;2.03;1.70;;;3.50;99.90;;;;;;5016325;28;20286;-77
2022/01/07 05:45:25;;;;;;;3.33;1.90;;;3.50;99.90;;;;;;5017235;28;20187;-78
2022/01/07 05:47:50;;;;;;;13.17;2.27;;;3.40;99.90;;;;;;5015798;28;20196;-77
2022/01/07 05:50:16;;;;;;;7.53;3.07;;;3.40;99.90;;;;;;5017208;28;20233;-77
2022/01/07 05:52:41;;;;;;;7.80;2.43;;;3.40;99.90;;;;;;5015993;28;20663;-77
2022/01/07 05:55:07;;;;;;;4.57;2.40;;;3.40;99.90;;;;;;5017048;28;20293;-77
2022/01/07 05:57:35;;;;;;;6.70;2.63;;;3.40;99.90;;;;;;5016611;28;20247;-77
2022/01/07 06:00:01;;;;;;;2.30;2.10;;;3.30;99.90;;;;;;5016911;28;20219;-77
2022/01/07 06:02:27;;;;;;;3.33;1.63;;;3.30;99.90;;;;;;5016210;28;20203;-77
2022/01/07 06:04:52;;;;;;;2.80;2.13;;;3.30;99.90;;;;;;5016803;28;20233;-77
2022/01/07 06:07:20;;;;;;;5.60;2.00;;;3.20;99.90;;;;;;5016776;28;20258;-78
2022/01/07 06:09:45;;;;;;;3.80;2.13;;;3.20;99.90;;;;;;5016284;28;20195;-77
2022/01/07 06:12:11;;;;;;;2.17;1.90;;;3.20;99.90;;;;;;5016978;28;20534;-77
2022/01/07 06:14:37;;;;;;;3.23;1.87;;;3.20;99.90;;;;;;5016678;28;20355;-77
2022/01/07 06:17:02;;;;;;;7.30;2.17;;;3.20;99.90;;;;;;5016787;28;20422;-77
2022/01/07 06:19:28;;;;;;;4.30;2.50;;;3.20;99.90;;;;;;5016292;28;20214;-77
2022/01/07 06:21:54;;;;;;;2.67;2.03;;;3.20;99.90;;;;;;5016524;28;20783;-77
2022/01/07 06:24:19;;;;;;;2.80;2.23;;;3.30;99.90;;;;;;5016928;28;20181;-77
2022/01/07 06:26:45;;;;;;;3.03;1.90;;;3.20;99.90;;;;;;5016778;28;20179;-77
2022/01/07 06:29:10;;;;;;;8.40;2.50;;;3.30;99.90;;;;;;5016300;28;20232;-77
2022/01/07 06:31:36;;;;;;;4.83;2.20;;;3.30;99.90;;;;;;5016596;28;20209;-78
2022/01/07 06:34:03;;;;;;;3.00;2.10;;;3.30;99.90;;;;;;5013555;28;20257;-78
2022/01/07 06:36:29;;;;;;;4.32;1.98;;;3.30;99.90;;;;;;5004424;28;20222;-77
2022/01/07 06:38:55;;;;;;;4.53;2.55;;;3.30;99.90;;;;;;4996254;28;20208;-77
2022/01/07 06:41:21;;;;;;;3.23;1.90;;;3.30;99.90;;;;;;4996085;28;20183;-78
2022/01/07 06:43:46;;;;;;;3.90;1.80;;;3.40;99.90;;;;;;4996555;28;20524;-78
2022/01/07 06:46:13;;;;;;;3.67;2.00;;;3.40;99.90;;;;;;4996661;28;20502;-77
2022/01/07 06:48:40;;;;;;;6.40;2.10;;;3.40;99.90;;;;;;4996652;28;20200;-78
2022/01/07 06:51:06;;;;;;;3.05;1.90;;;3.40;99.90;;;;;;4996515;28;20267;-76
2022/01/07 06:53:32;;;;;;;2.73;2.27;;;3.40;99.90;;;;;;4995810;28;20716;-77
2022/01/07 06:55:59;;;;;;;5.20;2.20;;;3.40;99.90;;;;;;4996285;28;20446;-77
2022/01/07 06:58:26;;;;;;;2.75;1.95;;;3.40;99.90;;;;;;4995898;28;20439;-77
2022/01/07 07:00:52;;;;;;;3.72;2.20;;;3.50;99.90;;;;;;4996323;28;20176;-77
2022/01/07 07:03:18;;;;;;;6.53;2.47;;;3.50;99.90;;;;;;4996963;28;20199;-78
2022/01/07 07:05:43;;;;;;;2.30;1.87;;;3.50;99.90;;;;;;5005603;28;20181;-77
2022/01/07 07:08:09;;;;;;;2.20;1.63;;;3.50;99.90;;;;;;5015124;28;20453;-77
2022/01/07 07:10:35;;;;;;;3.40;2.23;;;3.60;99.90;;;;;;5015510;28;20415;-77
2022/01/07 07:13:01;;;;;;;3.37;2.07;;;3.60;99.90;;;;;;5016000;28;20423;-77
2022/01/07 07:15:27;;;;;;;2.53;1.70;;;3.60;99.90;;;;;;5015862;28;20246;-77
2022/01/07 07:17:52;;;;;;;3.13;2.40;;;3.60;99.90;;;;;;5030707;28;20943;-77
2022/01/07 07:20:18;;;;;;;2.87;2.10;;;3.60;99.90;;;;;;5015436;28;20226;-77
2022/01/07 07:22:44;;;;;;;2.55;1.40;;;3.60;99.90;;;;;;5015865;28;20178;-76
2022/01/07 07:25:10;;;;;;;2.37;1.40;;;3.60;99.90;;;;;;5015623;28;20262;-77
2022/01/07 07:27:36;;;;;;;3.10;1.60;;;3.70;99.90;;;;;;5015186;28;20415;-77
2022/01/07 07:30:07;;;;;;;1.93;1.20;;;3.80;99.90;;;;;;5015407;28;20429;-77
2022/01/07 07:32:33;;;;;;;3.40;0.90;;;3.90;99.90;;;;;;5015268;28;20851;-77
2022/01/07 07:35:03;;;;;;;2.30;1.35;;;3.90;99.90;;;;;;5013313;28;20246;-76
2022/01/07 07:37:29;;;;;;;2.58;1.30;;;4.00;99.90;;;;;;5014489;28;20209;-77
2022/01/07 07:39:55;;;;;;;2.80;1.40;;;4.00;99.90;;;;;;5014550;28;20191;-77
2022/01/07 07:42:21;;;;;;;3.88;2.00;;;4.00;99.90;;;;;;5014768;28;20426;-77
2022/01/07 07:44:47;;;;;;;1.35;0.98;;;4.00;99.90;;;;;;5015142;28;20179;-76
2022/01/07 07:47:12;;;;;;;2.03;1.23;;;4.00;99.90;;;;;;5015139;28;20254;-77
2022/01/07 07:49:38;;;;;;;3.23;1.80;;;4.00;99.90;;;;;;5014655;28;20438;-77
2022/01/07 07:52:05;;;;;;;3.10;1.70;;;4.00;99.90;;;;;;5013731;28;20190;-77
2022/01/07 07:54:30;;;;;;;2.75;1.73;;;3.90;99.90;;;;;;5014659;28;20257;-77
2022/01/07 07:56:57;;;;;;;2.30;1.57;;;4.00;99.90;;;;;;5013578;28;20597;-77
2022/01/07 07:59:24;;;;;;;2.25;2.00;;;4.00;99.90;;;;;;5018752;28;20207;-77
2022/01/07 08:01:49;;;;;;;1.90;1.35;;;4.00;99.90;;;;;;5034665;28;20253;-77
2022/01/07 08:04:18;;;;;;;2.53;1.90;;;4.00;99.90;;;;;;5032476;28;20186;-77
2022/01/07 08:06:43;;;;;;;1.27;1.15;;;4.00;99.90;;;;;;5034551;28;20175;-77
2022/01/07 08:09:09;;;;;;;0.97;0.87;;;4.10;99.90;;;;;;5034027;28;20685;-77
2022/01/07 08:11:48;;;;;;;1.73;1.30;;;4.10;99.90;;;;;;5034571;28;20293;-77
2022/01/07 08:16:58;;;;;;;2.42;1.08;;;4.00;99.90;;;;;;5034547;28;20190;-77
2022/01/07 08:19:24;;;;;;;1.27;1.17;;;4.00;99.90;;;;;;5032713;28;20663;-77
2022/01/07 08:21:50;;;;;;;1.37;1.27;;;4.00;99.90;;;;;;5034145;28;20182;-77
2022/01/07 08:24:15;;;;;;;1.60;1.13;;;4.00;99.90;;;;;;5034188;28;20187;-77
2022/01/07 08:26:41;;;;;;;1.87;1.30;;;4.00;99.90;;;;;;5032661;28;20186;-77
2022/01/07 08:29:09;;;;;;;2.97;1.47;;;4.00;99.90;;;;;;5032041;28;20206;-77
2022/01/07 08:36:51;;;;;;;1.58;1.35;;;3.90;99.90;;;;;;5013996;28;20682;-77
2022/01/07 08:39:17;;;;;;;1.43;1.10;;;3.90;99.90;;;;;;5013684;28;20191;-77
2022/01/07 08:41:43;;;;;;;1.27;0.97;;;4.00;99.90;;;;;;5014210;28;20172;-77
2022/01/07 08:44:10;;;;;;;1.83;1.27;;;4.10;99.90;;;;;;5014141;28;20187;-76
2022/01/07 08:46:36;;;;;;;1.13;1.02;;;4.00;99.90;;;;;;5029077;28;20200;-77
2022/01/07 08:49:03;;;;;;;2.00;1.30;;;4.10;99.90;;;;;;5013464;28;20206;-77
2022/01/07 08:51:29;;;;;;;1.20;1.10;;;4.00;99.90;;;;;;5013921;28;20182;-76
2022/01/07 08:53:56;;;;;;;1.47;1.00;;;4.00;99.90;;;;;;5012619;28;20207;-77
2022/01/07 08:56:24;;;;;;;1.25;1.00;;;4.10;99.90;;;;;;5012557;28;20527;-76
2022/01/07 08:58:54;;;;;;;2.15;1.30;;;4.00;99.90;;;;;;5013200;28;20191;-77
2022/01/07 09:01:21;;;;;;;1.05;0.82;;;4.10;99.90;;;;;;5007759;28;20224;-76
2022/01/07 09:03:47;;;;;;;1.85;0.90;;;4.10;99.90;;;;;;4996154;28;20545;-76
2022/01/07 09:06:13;;;;;;;2.90;1.30;;;4.10;99.90;;;;;;5013851;28;20175;-76
2022/01/07 09:08:38;;;;;;;1.83;0.90;;;4.10;99.90;;;;;;5013341;28;20355;-76
2022/01/07 09:11:04;;;;;;;2.83;1.27;;;4.10;99.90;;;;;;5013503;28;20210;-76
2022/01/07 09:13:30;;;;;;;1.73;0.87;;;4.20;99.90;;;;;;5013581;28;20524;-76
2022/01/07 09:15:55;;;;;;;1.20;1.10;;;4.10;99.90;;;;;;5013489;28;20183;-76
2022/01/07 09:18:21;;;;;;;1.83;1.20;;;4.20;99.90;;;;;;5013768;28;20210;-76
2022/01/07 09:20:47;;;;;;;1.70;1.33;;;4.20;99.90;;;;;;5013566;28;20589;-76
2022/01/07 09:23:14;;;;;;;1.30;1.20;;;4.20;99.90;;;;;;5013360;28;20191;-76
2022/01/07 09:25:40;;;;;;;3.17;1.00;;;4.20;99.90;;;;;;5013528;28;20211;-77
2022/01/07 09:28:07;;;;;;;1.10;1.00;;;4.20;99.90;;;;;;5013240;28;20237;-76
2022/01/07 09:30:33;;;;;;;1.00;0.90;;;4.10;99.90;;;;;;5020455;28;20495;-76
2022/01/07 09:32:59;;;;;;;2.53;1.08;;;4.20;99.90;;;;;;5033107;28;20186;-78
2022/01/07 09:35:26;;;;;;;1.48;1.20;;;4.20;99.90;;;;;;5013317;28;20211;-77
2022/01/07 09:37:52;;;;;;;1.70;1.15;;;4.30;99.90;;;;;;5012799;28;20191;-77
2022/01/07 09:40:18;;;;;;;1.57;1.17;;;4.20;99.90;;;;;;5013197;28;20179;-75
2022/01/07 09:42:59;;;;;;;1.50;1.40;;;4.20;99.90;;;;;;5013265;28;20481;-75
2022/01/07 09:45:26;;;;;;;1.77;1.17;;;4.20;99.90;;;;;;5013188;28;20429;-75
2022/01/07 09:47:53;;;;;;;1.27;1.00;;;4.20;99.90;;;;;;5012856;28;20233;-75
2022/01/07 09:50:19;;;;;;;3.20;1.42;;;4.30;99.90;;;;;;5013215;28;20262;-75
2022/01/07 09:52:45;;;;;;;2.70;1.40;;;4.20;99.90;;;;;;5013275;28;20553;-75
2022/01/07 09:55:10;;;;;;;2.07;0.90;;;4.20;99.90;;;;;;5013157;28;20206;-75
2022/01/07 09:57:36;;;;;;;2.00;1.40;;;4.20;99.90;;;;;;5012691;28;20191;-75
2022/01/07 10:00:04;;;;;;;1.40;1.30;;;4.20;99.90;;;;;;5012246;28;20203;-76
2022/01/07 10:02:29;;;;;;;2.58;1.90;;;4.30;99.90;;;;;;5012763;28;20171;-76
2022/01/07 10:05:14;;;;;;;3.00;1.10;;;4.30;99.90;;;;;;5012919;28;20242;-76
2022/01/07 10:07:40;;;;;;;1.75;1.00;;;4.30;99.90;;;;;;5012598;28;20184;-75
2022/01/07 10:10:14;;;;;;;1.60;1.37;;;4.30;99.90;;;;;;5013190;28;20699;-75
2022/01/07 10:13:06;;;;;;;2.80;1.30;;;4.40;99.90;;;;;;5013038;28;20183;-75
2022/01/07 10:15:37;;;;;;;1.20;1.10;;;4.50;99.90;;;;;;5012774;28;20208;-77
2022/01/07 10:18:07;;;;;;;1.50;1.00;;;4.60;99.90;;;;;;5012687;28;20198;-75
2022/01/07 10:20:34;;;;;;;1.55;1.00;;;4.60;99.90;;;;;;5012961;28;20253;-75
2022/01/07 10:23:06;;;;;;;1.13;0.77;;;4.50;99.90;;;;;;5013076;28;20176;-75
2022/01/07 10:25:35;;;;;;;1.90;0.90;;;4.60;99.90;;;;;;5012903;28;20230;-75
2022/01/07 10:28:12;;;;;;;1.45;0.95;;;4.60;99.90;;;;;;5014282;28;20216;-75
2022/01/07 10:30:44;;;;;;;1.45;1.10;;;4.60;99.90;;;;;;5023250;28;20194;-75
2022/01/07 10:33:35;;;;;;;2.10;1.13;;;4.60;99.90;;;;;;5016827;28;20179;-75
2022/01/07 10:36:06;;;;;;;1.10;0.80;;;4.70;99.90;;;;;;5007235;28;20208;-75
2022/01/07 10:38:34;;;;;;;1.40;1.30;;;4.70;99.90;;;;;;5008385;28;20695;-76
2022/01/07 10:41:00;;;;;;;0.82;0.70;;;4.70;99.90;;;;;;5015712;28;20250;-75
2022/01/07 10:43:35;;;;;;;1.70;1.27;;;4.80;99.90;;;;;;5016343;28;20620;-75
2022/01/07 10:46:25;;;;;;;3.22;1.30;;;4.70;99.90;;;;;;5016090;28;20480;-75
2022/01/07 10:48:56;;;;;;;1.30;1.20;;;4.70;99.90;;;;;;5015822;28;20195;-76
2022/01/07 10:51:28;;;;;;;1.30;1.00;;;4.80;99.90;;;;;;5016203;28;20692;-75
2022/01/07 10:54:17;;;;;;;1.58;0.90;;;5.10;99.90;;;;;;5014709;28;20219;-75
2022/01/07 10:56:47;;;;;;;1.42;0.90;;;5.30;99.90;;;;;;5016000;28;20183;-75
2022/01/07 10:59:20;;;;;;;1.20;0.90;;;5.40;99.90;;;;;;5015576;28;20559;-75
2022/01/07 11:01:45;;;;;;;1.25;1.13;;;5.60;99.90;;;;;;5015854;28;20322;-75
2022/01/07 11:04:26;;;;;;;1.10;0.90;;;5.60;99.90;;;;;;5015741;28;20258;-75
2022/01/07 11:06:52;;;;;;;4.32;0.95;;;5.50;99.90;;;;;;5001940;28;20184;-75
2022/01/07 11:09:19;;;;;;;1.10;0.90;;;5.80;99.90;;;;;;5015011;28;20246;-75
2022/01/07 11:11:56;;;;;;;0.80;0.70;;;5.90;99.90;;;;;;5014531;28;20183;-75
2022/01/07 11:17:43;;;;;;;1.67;0.90;;;6.00;99.90;;;;;;5015451;28;20209;-75
2022/01/07 11:20:12;;;;;;;2.37;0.90;;;5.90;99.90;;;;;;5014042;28;20175;-75
2022/01/07 11:22:40;;;;;;;1.17;0.88;;;5.80;99.90;;;;;;5015442;28;20174;-75
2022/01/07 11:25:14;;;;;;;1.13;0.90;;;5.80;99.90;;;;;;5015657;28;20241;-75
2022/01/07 11:27:54;;;;;;;1.30;0.90;;;5.80;99.90;;;;;;5015277;28;20632;-75
2022/01/07 11:30:23;;;;;;;1.15;0.88;;;5.90;99.90;;;;;;5015392;28;20187;-75
2022/01/07 11:32:53;;;;;;;1.65;0.90;;;5.90;99.90;;;;;;5015515;28;20230;-75
2022/01/07 11:35:22;;;;;;;1.15;0.90;;;5.90;99.90;;;;;;5015373;28;20203;-75
2022/01/07 11:37:49;;;;;;;2.78;2.58;;;5.90;99.90;;;;;;5014789;28;20550;-75
2022/01/07 11:40:33;;;;;;;1.88;0.98;;;5.90;99.90;;;;;;5015157;28;20195;-75
2022/01/07 11:43:04;;;;;;;2.13;0.85;;;6.00;99.90;;;;;;5012550;28;20245;-75
2022/01/07 11:45:33;;;;;;;1.00;0.90;;;5.80;99.90;;;;;;5016773;28;20718;-75
2022/01/07 11:48:23;;;;;;;4.22;1.40;;;5.80;99.90;;;;;;5016180;28;20731;-76
2022/01/07 11:51:01;;;;;;;1.85;1.00;;;5.90;99.90;;;;;;5015076;28;20593;-75
2022/01/07 11:53:35;;;;;;;3.75;1.55;;;5.80;99.90;;;;;;5014753;28;20187;-75
2022/01/07 11:56:02;;;;;;;4.60;1.88;;;5.90;99.90;;;;;;5014822;28;20615;-75
2022/01/07 11:58:37;;;;;;;5.97;1.67;;;5.90;99.90;;;;;;5014222;28;20681;-75
2022/01/07 12:01:03;;;;;;;2.15;1.20;;;5.80;99.90;;;;;;5014631;28;20175;-75
2022/01/07 12:03:39;;;;;;;2.15;1.40;;;5.90;99.90;;;;;;5014704;28;20198;-75
2022/01/07 12:06:31;;;;;;;1.65;1.13;;;5.90;99.90;;;;;;5014666;28;20612;-75
2022/01/07 12:09:08;;;;;;;2.35;1.75;;;6.00;99.90;;;;;;5014378;28;20205;-75
2022/01/07 12:11:39;;;;;;;3.30;1.45;;;5.90;99.90;;;;;;5009182;28;20184;-76
2022/01/07 12:14:18;;;;;;;1.73;1.48;;;5.90;99.90;;;;;;5003997;28;20237;-75
2022/01/07 12:16:46;;;;;;;7.28;2.08;;;5.80;99.90;;;;;;5014664;28;20532;-75
2022/01/07 12:19:21;;;;;;;2.42;1.40;;;5.80;99.90;;;;;;5014014;28;20239;-75
2022/01/07 12:21:58;;;;;;;4.15;1.90;;;5.80;99.90;;;;;;5014365;28;20599;-75
2022/01/07 12:24:29;;;;;;;5.88;2.30;;;6.00;99.90;;;;;;5014370;28;20266;-76
2022/01/07 12:27:22;;;;;;;4.07;1.95;;;6.00;99.90;;;;;;5014084;28;20262;-75
2022/01/07 12:29:53;;;;;;;3.15;1.55;;;6.00;99.90;;;;;;5011687;28;20298;-75
2022/01/07 12:32:19;;;;;;;5.20;1.45;;;6.00;99.90;;;;;;5014269;28;20171;-75
2022/01/07 12:34:50;;;;;;;7.28;2.05;;;6.00;99.90;;;;;;5013821;28;20207;-75
2022/01/07 12:37:19;;;;;;;4.50;1.45;;;5.90;99.90;;;;;;5013722;28;20230;-76
2022/01/07 12:39:50;;;;;;;8.07;2.30;;;6.00;99.90;;;;;;5013738;28;20219;-75
2022/01/07 12:42:16;;;;;;;6.40;1.80;;;6.00;99.90;;;;;;5014295;28;20203;-75
2022/01/07 12:44:49;;;;;;;4.30;1.45;;;6.00;99.90;;;;;;5013888;28;20187;-75
2022/01/07 12:47:16;;;;;;;4.03;2.08;;;5.90;99.90;;;;;;5029291;28;20183;-75
2022/01/07 12:49:49;;;;;;;5.53;2.33;;;5.90;99.90;;;;;;5013457;28;20203;-75
2022/01/07 12:52:20;;;;;;;5.60;2.03;;;6.10;99.90;;;;;;5013884;28;20183;-75
2022/01/07 12:55:05;;;;;;;3.40;1.85;;;6.10;99.90;;;;;;5006828;28;20214;-76
2022/01/07 12:57:42;;;;;;;2.30;1.80;;;6.00;99.90;;;;;;4993827;28;20255;-76
2022/01/07 13:00:29;;;;;;;5.95;2.20;;;5.90;99.90;;;;;;4993702;28;20231;-75
2022/01/07 13:03:06;;;;;;;3.63;1.90;;;5.90;99.90;;;;;;4997323;28;20184;-75
2022/01/07 13:05:37;;;;;;;3.90;1.70;;;6.00;99.90;;;;;;4993980;28;20176;-76
2022/01/07 13:08:11;;;;;;;7.28;2.97;;;6.00;99.90;;;;;;4993680;28;20196;-76
2022/01/07 13:10:42;;;;;;;3.05;1.80;;;6.00;99.90;;;;;;4993836;28;20181;-76
2022/01/07 13:13:18;;;;;;;4.55;2.03;;;5.90;99.90;;;;;;4993868;28;20176;-76